Time;durP1;ratioP1;P1;durP2;ratioP2;P2;SDS_P1;SDS_P2;PMS_P1;PMS_P2;Temp;Humidity;BMP_temperature;BMP_pressure;BME280_temperature;BME280_humidity;BME280_pressure;Samples;Min_cycle;Max_cycle;Signal;HPM_P1;HPM_P2
2021/01/06 00:01:16;;;;;;;55.17;21.75;;;0.00;97.40;;;;;;6194606;23;20058;-80
2021/01/06 00:03:42;;;;;;;56.30;21.10;;;0.00;97.60;;;;;;6220691;23;20004;-81
2021/01/06 00:06:12;;;;;;;59.53;22.08;;;-0.10;97.60;;;;;;6220111;23;20031;-81
2021/01/06 00:08:40;;;;;;;68.10;22.73;;;-0.10;97.80;;;;;;6193918;23;20325;-81
2021/01/06 00:11:05;;;;;;;63.38;22.52;;;-0.10;97.60;;;;;;6220522;23;20004;-79
2021/01/06 00:13:31;;;;;;;61.63;22.75;;;-0.10;97.70;;;;;;6220869;23;20004;-80
2021/01/06 00:15:58;;;;;;;59.92;21.88;;;-0.10;97.70;;;;;;6236396;23;20080;-80
2021/01/06 00:18:25;;;;;;;61.50;23.38;;;-0.10;97.90;;;;;;6240938;22;19999;-82
2021/01/06 00:20:51;;;;;;;60.80;21.92;;;-0.10;98.00;;;;;;6243029;23;20212;-82
2021/01/06 00:23:18;;;;;;;69.57;23.63;;;-0.20;98.40;;;;;;6216323;23;20068;-82
2021/01/06 00:25:43;;;;;;;57.85;20.88;;;-0.20;98.30;;;;;;6217159;23;20005;-82
2021/01/06 00:28:12;;;;;;;63.05;23.08;;;-0.10;98.20;;;;;;6216961;23;20004;-82
2021/01/06 00:30:41;;;;;;;68.82;23.65;;;-0.10;98.00;;;;;;6200229;23;20051;-83
2021/01/06 00:33:11;;;;;;;67.65;23.35;;;-0.10;98.00;;;;;;6223269;23;20424;-82
2021/01/06 00:35:36;;;;;;;58.85;22.08;;;-0.10;98.00;;;;;;6196107;23;20009;-82
2021/01/06 00:38:04;;;;;;;72.85;24.70;;;-0.10;97.80;;;;;;6222024;23;20371;-82
2021/01/06 00:40:32;;;;;;;65.43;22.83;;;-0.10;97.80;;;;;;6196668;23;20005;-82
2021/01/06 00:43:00;;;;;;;73.65;25.75;;;-0.10;97.90;;;;;;6199983;23;20005;-82
2021/01/06 00:45:26;;;;;;;65.35;23.80;;;-0.10;97.80;;;;;;6219001;23;20011;-82
2021/01/06 00:47:52;;;;;;;52.53;21.15;;;-0.20;98.20;;;;;;6217355;23;20432;-81
2021/01/06 00:50:21;;;;;;;70.13;25.23;;;-0.20;98.10;;;;;;6192135;23;20032;-82
2021/01/06 00:52:46;;;;;;;76.22;25.90;;;-0.20;98.40;;;;;;6191204;23;20017;-82
2021/01/06 00:55:12;;;;;;;74.97;24.58;;;-0.20;98.70;;;;;;6191816;23;20346;-81
2021/01/06 00:57:38;;;;;;;66.07;23.15;;;-0.30;99.00;;;;;;6191028;23;20015;-81
2021/01/06 01:00:12;;;;;;;66.15;23.40;;;-0.30;99.30;;;;;;6190581;23;20087;-82
2021/01/06 01:02:38;;;;;;;80.25;28.52;;;-0.30;99.20;;;;;;6217718;23;20082;-82
2021/01/06 01:05:04;;;;;;;77.10;29.02;;;-0.40;99.90;;;;;;6190832;23;20463;-82
2021/01/06 01:07:30;;;;;;;71.65;24.83;;;-0.40;99.90;;;;;;6191825;23;20004;-82
2021/01/06 01:09:55;;;;;;;66.60;24.83;;;-0.40;99.90;;;;;;6218626;23;20008;-82
2021/01/06 01:12:22;;;;;;;69.05;25.25;;;-0.50;99.90;;;;;;6218655;23;20032;-82
2021/01/06 01:32:55;;;;;;;80.53;27.10;;;-0.60;99.90;;;;;;6248629;22;20026;-83
2021/01/06 01:35:27;;;;;;;80.40;26.83;;;-0.50;99.90;;;;;;6222017;23;20075;-82
2021/01/06 01:37:54;;;;;;;79.63;27.65;;;-0.60;99.90;;;;;;6222082;23;20015;-81
2021/01/06 01:40:40;;;;;;;71.65;25.60;;;-0.50;99.90;;;;;;6221846;23;20027;-82
2021/01/06 01:43:15;;;;;;;85.72;28.58;;;-0.60;99.90;;;;;;6221183;23;20027;-83
2021/01/06 01:45:50;;;;;;;82.70;28.13;;;-0.50;99.90;;;;;;6249841;22;20022;-82
2021/01/06 01:48:31;;;;;;;84.13;31.65;;;-0.60;99.90;;;;;;6249128;23;20499;-83
2021/01/06 01:51:01;;;;;;;80.65;28.00;;;-0.60;99.90;;;;;;6248630;23;19996;-81
2021/01/06 01:53:51;;;;;;;81.63;27.65;;;-0.60;99.90;;;;;;6249067;22;20024;-81
2021/01/06 01:56:19;;;;;;;84.35;28.15;;;-0.60;99.90;;;;;;6249896;23;20075;-83
2021/01/06 01:58:49;;;;;;;77.20;25.92;;;-0.60;99.90;;;;;;6222349;23;20363;-83
2021/01/06 02:01:14;;;;;;;78.72;25.63;;;-0.50;99.90;;;;;;6230915;23;19999;-80
2021/01/06 02:03:51;;;;;;;76.90;26.30;;;-0.60;99.90;;;;;;6266015;22;20008;-80
2021/01/06 02:06:34;;;;;;;85.97;29.67;;;-0.60;99.90;;;;;;6257148;23;20000;-83
2021/01/06 02:09:16;;;;;;;75.72;26.55;;;-0.60;99.90;;;;;;6222308;23;20011;-83
2021/01/06 02:11:47;;;;;;;75.38;25.08;;;-0.60;99.90;;;;;;6247600;23;20359;-82
2021/01/06 02:14:20;;;;;;;73.47;25.73;;;-0.60;99.90;;;;;;6255067;22;20000;-81
2021/01/06 02:16:58;;;;;;;83.90;27.65;;;-0.70;99.90;;;;;;6235641;23;20066;-81
2021/01/06 02:19:30;;;;;;;68.20;23.95;;;-0.60;99.90;;;;;;6225786;23;20008;-82
2021/01/06 02:21:56;;;;;;;68.93;25.48;;;-0.60;99.90;;;;;;6248826;23;20008;-82
2021/01/06 02:24:22;;;;;;;65.15;24.70;;;-0.60;99.90;;;;;;6247633;22;20000;-82
2021/01/06 02:26:48;;;;;;;63.50;22.20;;;-0.60;99.90;;;;;;6247982;23;20004;-82
2021/01/06 02:29:14;;;;;;;73.95;25.98;;;;;;;;;;6248791;23;19999;-81
2021/01/06 02:31:40;;;;;;;77.22;25.58;;;-0.50;99.90;;;;;;6221277;23;20073;-82
2021/01/06 02:34:06;;;;;;;69.47;24.90;;;-0.50;99.90;;;;;;6247317;22;20036;-83
2021/01/06 02:36:32;;;;;;;92.43;31.85;;;-0.60;99.90;;;;;;6248959;23;20004;-80
2021/01/06 02:38:58;;;;;;;79.25;29.60;;;-0.60;99.90;;;;;;6248431;23;20041;-82
2021/01/06 02:41:25;;;;;;;76.82;28.50;;;-0.60;99.90;;;;;;6221889;23;20091;-82
2021/01/06 02:43:51;;;;;;;79.40;29.17;;;-0.50;99.90;;;;;;6221751;23;20027;-81
2021/01/06 02:46:17;;;;;;;95.88;33.30;;;-0.50;99.90;;;;;;6221173;23;20000;-82
2021/01/06 02:48:44;;;;;;;125.63;48.65;;;-0.50;99.90;;;;;;6221112;23;20000;-81
2021/01/06 02:51:24;;;;;;;128.43;48.05;;;-0.50;99.90;;;;;;6222105;23;20007;-83
2021/01/06 02:54:01;;;;;;;114.00;44.05;;;-0.50;99.90;;;;;;6248157;22;20008;-83
2021/01/06 02:56:27;;;;;;;102.40;39.47;;;-0.50;99.90;;;;;;6249102;23;20004;-82
2021/01/06 02:58:54;;;;;;;88.78;32.90;;;-0.50;99.90;;;;;;6248052;23;20002;-82
2021/01/06 03:01:23;;;;;;;84.43;30.55;;;-0.50;99.90;;;;;;6221981;23;20069;-82
2021/01/06 03:03:51;;;;;;;87.55;33.85;;;-0.50;99.90;;;;;;6248097;22;20019;-82
2021/01/06 03:06:23;;;;;;;81.75;32.58;;;-0.50;99.90;;;;;;6221300;23;20000;-80
2021/01/06 03:08:48;;;;;;;98.63;36.10;;;-0.40;99.90;;;;;;6223978;23;20054;-82
2021/01/06 03:11:14;;;;;;;88.05;35.95;;;-0.50;99.90;;;;;;6221702;23;20008;-82
2021/01/06 03:13:40;;;;;;;90.07;35.30;;;-0.50;99.90;;;;;;6248526;22;20037;-81
2021/01/06 03:16:06;;;;;;;78.93;29.77;;;-0.50;99.90;;;;;;6221680;23;20018;-81
2021/01/06 03:18:32;;;;;;;133.38;52.85;;;-0.50;99.90;;;;;;6248645;23;20000;-81
2021/01/06 03:21:04;;;;;;;96.03;34.45;;;-0.50;99.90;;;;;;6220679;23;20004;-81
2021/01/06 03:23:44;;;;;;;75.15;28.73;;;-0.50;99.90;;;;;;6220354;22;20026;-81
2021/01/06 03:26:15;;;;;;;70.93;28.25;;;-0.50;99.90;;;;;;6221729;23;20412;-81
2021/01/06 03:28:42;;;;;;;76.15;29.30;;;-0.50;99.90;;;;;;6221777;23;20000;-81
2021/01/06 03:31:13;;;;;;;76.57;28.65;;;-0.60;99.90;;;;;;6229317;23;20024;-80
2021/01/06 03:33:56;;;;;;;89.88;30.25;;;-0.50;99.90;;;;;;6233686;22;20008;-79
2021/01/06 03:36:24;;;;;;;75.25;26.35;;;-0.50;99.90;;;;;;6260276;23;20008;-79
2021/01/06 03:38:54;;;;;;;76.00;28.80;;;-0.50;99.90;;;;;;6249853;23;20138;-82
2021/01/06 03:41:20;;;;;;;82.00;30.58;;;-0.60;99.90;;;;;;6224703;23;20000;-82
2021/01/06 03:43:50;;;;;;;82.45;28.88;;;-0.60;99.90;;;;;;6230873;22;20071;-81
2021/01/06 03:46:53;;;;;;;73.95;28.05;;;-0.60;99.90;;;;;;6226133;23;20487;-83
2021/01/06 03:49:49;;;;;;;91.10;36.35;;;-0.70;99.90;;;;;;6221900;23;20000;-82
2021/01/06 03:52:29;;;;;;;80.90;30.77;;;-0.70;99.90;;;;;;6248506;23;20023;-80
2021/01/06 03:55:04;;;;;;;78.50;29.27;;;-0.70;99.90;;;;;;6247744;22;20057;-82
2021/01/06 03:57:31;;;;;;;75.93;27.38;;;-0.70;99.90;;;;;;6221065;23;20008;-81
2021/01/06 03:59:58;;;;;;;68.97;26.02;;;-0.70;99.90;;;;;;6248756;23;20377;-82
2021/01/06 04:02:35;;;;;;;74.95;26.70;;;-0.70;99.90;;;;;;6220811;23;20091;-82
2021/01/06 04:05:15;;;;;;;75.15;24.77;;;-0.60;99.90;;;;;;6220113;23;20051;-82
2021/01/06 04:08:00;;;;;;;68.20;25.52;;;-0.60;99.90;;;;;;6248732;23;20053;-81
2021/01/06 04:10:36;;;;;;;72.30;23.63;;;-0.60;99.90;;;;;;6220128;23;20000;-82
2021/01/06 04:13:01;;;;;;;67.65;25.42;;;-0.50;99.90;;;;;;6220329;23;20107;-82
2021/01/06 04:15:28;;;;;;;64.50;26.92;;;-0.50;99.90;;;;;;6221236;23;20012;-81
2021/01/06 04:17:54;;;;;;;75.20;28.00;;;-0.50;99.90;;;;;;6219490;23;20016;-82
2021/01/06 04:20:49;;;;;;;71.32;26.70;;;-0.60;99.90;;;;;;6219788;23;20004;-81
2021/01/06 04:23:17;;;;;;;74.70;25.73;;;-0.70;99.90;;;;;;6194983;23;20095;-80
2021/01/06 04:25:47;;;;;;;71.93;25.40;;;-0.70;99.90;;;;;;6220505;23;20007;-82
2021/01/06 04:28:20;;;;;;;72.93;27.45;;;-0.70;99.90;;;;;;6247980;23;20000;-82
2021/01/06 04:31:09;;;;;;;68.82;27.27;;;-0.70;99.90;;;;;;6220335;23;20000;-82
2021/01/06 04:33:45;;;;;;;74.63;24.92;;;-0.70;99.90;;;;;;6219016;22;20011;-81
2021/01/06 04:36:29;;;;;;;71.57;25.33;;;-0.70;99.90;;;;;;6247777;23;20000;-82
2021/01/06 04:38:57;;;;;;;73.00;26.67;;;-0.70;99.90;;;;;;6247538;23;20000;-82
2021/01/06 04:41:39;;;;;;;61.47;23.52;;;-0.70;99.90;;;;;;6247101;23;20393;-83
2021/01/06 04:44:58;;;;;;;62.00;25.73;;;-0.70;99.90;;;;;;6247399;22;20000;-83
2021/01/06 04:47:37;;;;;;;59.03;22.95;;;-0.70;99.90;;;;;;6101446;23;20234;-83
2021/01/06 04:50:30;;;;;;;65.07;24.30;;;-0.70;99.90;;;;;;6209206;23;20004;-82
2021/01/06 04:52:56;;;;;;;;;;;-0.60;99.90;;;;;;6222548;23;20015;-84
2021/01/06 04:55:34;;;;;;;71.82;25.30;;;-0.60;99.90;;;;;;6222518;23;20208;-83
2021/01/06 04:58:47;;;;;;;64.40;24.48;;;-0.60;99.90;;;;;;6223372;23;20012;-83
2021/01/06 05:01:36;;;;;;;53.63;19.65;;;-0.60;99.90;;;;;;6102023;23;20062;-82
2021/01/06 05:04:27;;;;;;;72.28;25.05;;;-0.60;99.90;;;;;;6102813;23;20037;-83
2021/01/06 05:07:05;;;;;;;62.95;23.80;;;-0.60;99.90;;;;;;6212309;23;20004;-83
2021/01/06 05:10:17;;;;;;;62.50;23.50;;;-0.60;99.90;;;;;;6251703;23;20000;-83
2021/01/06 05:12:47;;;;;;;67.45;24.90;;;-0.70;99.90;;;;;;6102344;23;20117;-83
2021/01/06 05:15:13;;;;;;;80.28;26.73;;;-0.70;99.90;;;;;;6127352;23;20029;-83
2021/01/06 05:17:40;;;;;;;69.70;27.13;;;-0.70;99.90;;;;;;6189845;23;20008;-83
2021/01/06 05:20:08;;;;;;;85.15;27.73;;;-0.80;99.90;;;;;;6232169;23;20131;-79
2021/01/06 05:22:34;;;;;;;77.43;25.88;;;-0.90;99.90;;;;;;6242819;23;20055;-80
2021/01/06 05:25:00;;;;;;;78.38;26.65;;;-1.00;99.90;;;;;;6230655;23;20004;-83
2021/01/06 05:27:36;;;;;;;87.22;30.30;;;-1.00;99.90;;;;;;6223359;23;20000;-83
2021/01/06 05:30:18;;;;;;;74.97;26.00;;;-1.10;99.90;;;;;;6251128;23;20419;-80
2021/01/06 05:32:44;;;;;;;78.80;27.33;;;-1.10;99.90;;;;;;6223759;23;20016;-81
2021/01/06 05:35:18;;;;;;;79.35;27.83;;;-1.10;99.90;;;;;;6221110;23;20030;-83
2021/01/06 05:37:53;;;;;;;77.32;26.42;;;-1.10;99.90;;;;;;6221744;23;20298;-83
2021/01/06 05:40:19;;;;;;;81.68;26.88;;;-1.00;99.90;;;;;;6222076;23;20000;-83
2021/01/06 05:42:49;;;;;;;77.95;25.88;;;-1.00;99.90;;;;;;6220717;23;20010;-81
2021/01/06 05:45:16;;;;;;;85.93;27.65;;;-1.00;99.90;;;;;;6221088;23;20000;-82
2021/01/06 05:47:59;;;;;;;74.15;26.08;;;-1.00;99.90;;;;;;6247762;23;20027;-83
2021/01/06 05:50:35;;;;;;;72.75;25.88;;;-0.90;99.90;;;;;;6221001;23;20288;-81
2021/01/06 05:53:03;;;;;;;78.18;26.65;;;-0.90;99.90;;;;;;6222028;23;20036;-79
2021/01/06 05:55:31;;;;;;;80.65;27.38;;;-1.00;99.90;;;;;;6247382;22;20016;-81
2021/01/06 05:58:17;;;;;;;78.03;28.13;;;-0.90;99.90;;;;;;6220726;23;20130;-82
2021/01/06 06:01:04;;;;;;;81.75;27.17;;;-1.00;99.90;;;;;;6222660;23;20004;-82
2021/01/06 06:03:44;;;;;;;75.90;26.98;;;-1.00;99.90;;;;;;6220482;22;20008;-82
2021/01/06 06:06:44;;;;;;;84.28;28.92;;;-1.00;99.90;;;;;;6248038;23;20007;-80
2021/01/06 06:09:12;;;;;;;81.55;27.58;;;-1.00;99.90;;;;;;6248281;23;20000;-82
2021/01/06 06:12:15;;;;;;;80.82;26.98;;;-1.10;99.90;;;;;;6220832;23;20004;-82
2021/01/06 06:14:47;;;;;;;78.57;28.77;;;-1.10;99.90;;;;;;6250480;22;20000;-81
2021/01/06 06:17:50;;;;;;;83.60;27.60;;;-1.20;99.90;;;;;;6222381;23;20004;-83
2021/01/06 06:20:34;;;;;;;75.47;26.50;;;-1.10;99.90;;;;;;6251972;23;20000;-83
2021/01/06 06:23:22;;;;;;;71.75;24.98;;;-1.10;99.90;;;;;;6249539;23;20030;-81
2021/01/06 06:26:02;;;;;;;84.53;27.45;;;-1.10;99.90;;;;;;6224676;23;20028;-81
2021/01/06 06:29:18;;;;;;;77.03;28.15;;;-1.00;99.90;;;;;;6241567;23;19988;-81
2021/01/06 06:31:54;;;;;;;73.75;24.85;;;-1.00;99.90;;;;;;6208574;23;20004;-83
2021/01/06 06:34:26;;;;;;;75.65;25.17;;;-1.00;99.90;;;;;;6250089;22;20066;-81
2021/01/06 06:37:13;;;;;;;70.47;27.17;;;-1.00;99.90;;;;;;6222332;23;20022;-82
2021/01/06 06:39:43;;;;;;;83.32;26.85;;;-1.10;99.90;;;;;;6249496;23;20063;-84
2021/01/06 06:42:16;;;;;;;78.63;25.65;;;-1.10;99.90;;;;;;6223880;23;20009;-82
2021/01/06 06:44:51;;;;;;;81.00;28.27;;;-1.00;99.90;;;;;;6229140;23;20348;-83
2021/01/06 06:47:20;;;;;;;77.32;28.05;;;-1.00;99.90;;;;;;6255989;23;20314;-82
2021/01/06 06:50:14;;;;;;;77.00;26.10;;;-1.10;99.90;;;;;;6229474;23;20091;-80
2021/01/06 06:53:00;;;;;;;86.72;29.08;;;-1.10;99.90;;;;;;6228413;23;20004;-80
2021/01/06 06:55:37;;;;;;;87.32;27.40;;;-1.20;99.90;;;;;;6209722;23;20157;-81
2021/01/06 06:58:17;;;;;;;80.45;28.13;;;-1.20;99.90;;;;;;6230425;23;20004;-82
2021/01/06 07:00:44;;;;;;;67.88;23.00;;;-1.20;99.90;;;;;;6230564;23;20004;-81
2021/01/06 07:03:12;;;;;;;81.07;27.58;;;-1.20;99.90;;;;;;6257544;23;20004;-82
2021/01/06 07:06:00;;;;;;;95.38;28.73;;;-1.10;99.90;;;;;;6257556;22;20063;-81
2021/01/06 07:08:26;;;;;;;86.88;26.15;;;-1.10;99.90;;;;;;6252774;23;20000;-81
2021/01/06 07:11:02;;;;;;;76.50;24.60;;;-1.10;99.90;;;;;;6254880;23;20435;-82
2021/01/06 07:13:29;;;;;;;81.55;25.25;;;-1.00;99.90;;;;;;6225752;22;20019;-82
2021/01/06 07:16:00;;;;;;;78.32;27.02;;;-1.00;99.90;;;;;;6222547;23;19996;-83
2021/01/06 07:18:44;;;;;;;73.13;27.48;;;-0.90;99.90;;;;;;6250908;23;20007;-82
2021/01/06 07:21:10;;;;;;;78.63;24.80;;;-0.90;99.90;;;;;;6221299;23;20309;-82
2021/01/06 07:23:44;;;;;;;72.25;24.60;;;-0.90;99.90;;;;;;6222281;22;20019;-82
2021/01/06 07:26:24;;;;;;;81.35;26.83;;;-0.90;99.90;;;;;;6221626;23;20027;-81
2021/01/06 07:28:58;;;;;;;72.30;24.83;;;-0.90;99.90;;;;;;6249679;23;20030;-84
2021/01/06 07:31:27;;;;;;;65.20;22.38;;;-0.90;99.90;;;;;;6222994;23;20385;-83
2021/01/06 07:34:01;;;;;;;80.32;28.00;;;-0.90;99.90;;;;;;6248338;22;20008;-82
2021/01/06 07:36:31;;;;;;;89.07;31.42;;;-0.80;99.90;;;;;;6248286;23;20004;-83
2021/01/06 07:38:57;;;;;;;84.93;28.20;;;-0.80;99.90;;;;;;6222791;23;20004;-83
2021/01/06 07:41:24;;;;;;;77.25;24.88;;;-0.80;99.90;;;;;;6248773;23;20114;-82
2021/01/06 07:44:16;;;;;;;68.10;24.25;;;-0.80;99.90;;;;;;6248529;22;20001;-84
2021/01/06 07:46:53;;;;;;;79.18;27.83;;;-0.80;99.90;;;;;;6249297;23;20024;-84
2021/01/06 07:49:42;;;;;;;79.85;25.63;;;-0.90;99.90;;;;;;6220960;23;20007;-83
2021/01/06 07:52:33;;;;;;;83.10;27.23;;;-1.00;99.90;;;;;;6221569;23;20304;-83
2021/01/06 07:55:37;;;;;;;75.55;27.48;;;-1.00;99.90;;;;;;6248161;22;20067;-82
2021/01/06 07:58:12;;;;;;;93.95;29.10;;;-1.10;99.90;;;;;;6223677;23;20012;-82
2021/01/06 08:00:44;;;;;;;69.72;23.35;;;-1.10;99.90;;;;;;6222234;23;20011;-83
2021/01/06 08:03:19;;;;;;;68.32;25.70;;;-1.00;99.90;;;;;;6248395;23;20015;-83
2021/01/06 08:05:54;;;;;;;68.75;25.60;;;-0.90;99.90;;;;;;6222591;23;20027;-82
2021/01/06 08:08:20;;;;;;;76.68;26.25;;;-0.80;99.90;;;;;;6249800;23;19996;-84
2021/01/06 08:10:49;;;;;;;77.68;24.70;;;-0.80;99.90;;;;;;6251891;23;20057;-85
2021/01/06 08:13:17;;;;;;;68.53;25.02;;;-0.80;99.90;;;;;;6229423;23;20004;-84
2021/01/06 08:15:45;;;;;;;78.43;24.38;;;-0.90;99.90;;;;;;6223854;23;20028;-83
2021/01/06 08:18:49;;;;;;;65.45;22.63;;;-0.80;99.90;;;;;;6221048;23;20374;-81
2021/01/06 08:21:31;;;;;;;71.38;25.45;;;-0.70;99.90;;;;;;6190148;23;20325;-82
2021/01/06 08:24:15;;;;;;;71.00;23.63;;;-0.70;99.90;;;;;;6250316;22;20027;-85
2021/01/06 08:26:56;;;;;;;60.92;22.95;;;-0.80;99.90;;;;;;6225052;23;20416;-85
2021/01/06 08:29:26;;;;;;;64.95;21.38;;;-0.70;99.90;;;;;;6253010;23;20000;-84
2021/01/06 08:31:58;;;;;;;65.43;24.27;;;-0.70;99.90;;;;;;6226742;23;20071;-85
2021/01/06 08:34:27;;;;;;;;;;;-0.60;99.90;;;;;;6255049;22;20007;-85
2021/01/06 08:36:56;;;;;;;66.25;23.45;;;-0.60;99.90;;;;;;6254659;23;19919;-85
2021/01/06 08:39:23;;;;;;;62.47;22.73;;;-0.50;99.90;;;;;;6253407;23;20008;-84
2021/01/06 08:41:50;;;;;;;53.08;21.10;;;-0.40;99.90;;;;;;6240816;23;20011;-84
2021/01/06 08:44:44;;;;;;;62.95;23.75;;;-0.50;99.90;;;;;;6239810;23;20031;-84
2021/01/06 08:47:13;;;;;;;64.65;23.00;;;-0.50;99.90;;;;;;6232535;23;20000;-84
2021/01/06 08:49:45;;;;;;;61.70;23.27;;;-0.50;99.90;;;;;;6239097;23;20011;-84
2021/01/06 08:52:16;;;;;;;57.95;21.48;;;-0.50;99.90;;;;;;6258841;23;20054;-82
2021/01/06 08:54:44;;;;;;;59.38;22.83;;;-0.50;99.90;;;;;;6226215;23;20012;-84
2021/01/06 08:57:25;;;;;;;58.72;23.30;;;-0.60;99.90;;;;;;6226520;23;20011;-84
2021/01/06 08:59:51;;;;;;;67.55;21.60;;;-0.60;99.90;;;;;;6252757;23;20051;-83
2021/01/06 09:02:40;;;;;;;69.68;22.52;;;-0.60;99.90;;;;;;6225548;23;20000;-83
2021/01/06 09:05:35;;;;;;;61.22;22.42;;;-0.60;99.90;;;;;;6224217;23;20004;-82
2021/01/06 09:08:29;;;;;;;56.72;21.42;;;-0.50;99.90;;;;;;6224898;23;20011;-82
2021/01/06 09:11:07;;;;;;;58.42;21.40;;;-0.30;99.90;;;;;;6251623;23;20004;-82
2021/01/06 09:13:36;;;;;;;56.10;21.08;;;-0.40;99.90;;;;;;6225269;22;20407;-83
2021/01/06 09:16:12;;;;;;;56.15;20.35;;;-0.40;99.90;;;;;;6254077;23;20064;-82
2021/01/06 09:18:44;;;;;;;63.90;23.58;;;-0.40;99.90;;;;;;6252656;23;20000;-83
2021/01/06 09:21:16;;;;;;;62.03;23.27;;;-0.40;99.90;;;;;;6226572;23;20365;-82
2021/01/06 09:23:53;;;;;;;53.85;20.58;;;-0.30;99.90;;;;;;6239443;22;20015;-83
2021/01/06 09:26:22;;;;;;;57.63;20.60;;;-0.30;99.90;;;;;;6258944;23;20060;-83
2021/01/06 09:29:15;;;;;;;56.47;20.52;;;-0.40;99.90;;;;;;6226075;23;20054;-83
2021/01/06 09:31:53;;;;;;;52.70;19.58;;;-0.30;99.90;;;;;;6254507;23;20000;-83
2021/01/06 09:34:32;;;;;;;53.47;19.90;;;-0.30;99.90;;;;;;6253010;22;20019;-84
2021/01/06 09:36:58;;;;;;;50.50;20.02;;;-0.40;99.90;;;;;;6226223;23;20004;-83
2021/01/06 09:39:29;;;;;;;55.90;19.50;;;-0.40;99.90;;;;;;6228617;23;20024;-83
2021/01/06 09:41:57;;;;;;;50.13;19.85;;;-0.40;99.90;;;;;;6227852;23;20015;-83
2021/01/06 09:44:23;;;;;;;48.17;19.23;;;-0.40;99.90;;;;;;6225452;23;20008;-83
2021/01/06 09:47:21;;;;;;;50.42;19.13;;;-0.40;99.90;;;;;;6228366;23;20058;-83
2021/01/06 09:49:55;;;;;;;50.05;19.73;;;-0.50;99.90;;;;;;6235869;23;20000;-83
2021/01/06 09:52:34;;;;;;;39.10;17.52;;;-0.40;99.90;;;;;;6234208;23;20494;-82
2021/01/06 09:55:04;;;;;;;46.22;19.40;;;-0.30;99.90;;;;;;6232801;23;20092;-82
2021/01/06 09:57:30;;;;;;;40.78;16.48;;;-0.30;99.90;;;;;;6233576;23;20024;-83
2021/01/06 10:00:09;;;;;;;44.75;18.83;;;-0.30;99.90;;;;;;6236206;23;20008;-82
2021/01/06 10:02:37;;;;;;;49.88;18.55;;;-0.30;99.90;;;;;;6235369;23;19992;-83
2021/01/06 10:05:40;;;;;;;46.92;17.90;;;-0.30;99.90;;;;;;6239747;23;20004;-82
2021/01/06 10:08:28;;;;;;;43.55;16.50;;;-0.20;99.90;;;;;;6238242;23;20056;-82
2021/01/06 10:11:05;;;;;;;38.70;15.07;;;-0.20;99.90;;;;;;6235313;23;20007;-82
2021/01/06 10:13:50;;;;;;;41.72;16.35;;;-0.20;99.90;;;;;;6260568;22;20004;-82
2021/01/06 10:16:25;;;;;;;42.63;17.23;;;-0.10;99.90;;;;;;6264180;23;20027;-82
2021/01/06 10:18:52;;;;;;;42.67;17.38;;;-0.10;99.90;;;;;;6264152;23;20064;-82
2021/01/06 10:21:33;;;;;;;42.20;17.30;;;-0.10;99.90;;;;;;6236417;23;19992;-83
2021/01/06 10:24:28;;;;;;;44.95;16.58;;;0.00;99.90;;;;;;6234340;23;20006;-83
2021/01/06 10:27:18;;;;;;;50.60;17.70;;;0.10;99.90;;;;;;6254720;23;20075;-83
2021/01/06 10:29:47;;;;;;;42.67;17.05;;;0.10;99.90;;;;;;6224507;23;20084;-82
2021/01/06 10:32:12;;;;;;;44.58;17.13;;;0.20;99.90;;;;;;6228240;23;20031;-84
2021/01/06 10:35:24;;;;;;;42.53;17.23;;;0.30;99.90;;;;;;6228760;23;20015;-86
2021/01/06 10:37:50;;;;;;;41.25;17.65;;;0.20;99.90;;;;;;6219283;23;20012;-83
2021/01/06 10:40:31;;;;;;;39.85;16.02;;;0.20;99.90;;;;;;6252078;23;20000;-83
2021/01/06 10:42:57;;;;;;;37.30;15.63;;;0.20;99.90;;;;;;6251513;23;20012;-83
2021/01/06 10:45:29;;;;;;;41.83;18.13;;;0.20;99.90;;;;;;6226375;23;20004;-86
2021/01/06 10:47:56;;;;;;;43.15;16.45;;;0.30;99.90;;;;;;6253038;23;20428;-83
2021/01/06 10:50:29;;;;;;;39.80;16.60;;;0.30;99.90;;;;;;6225240;23;20011;-83
2021/01/06 10:53:13;;;;;;;41.15;16.67;;;0.30;99.90;;;;;;6223918;23;19996;-83
2021/01/06 10:55:41;;;;;;;41.60;16.63;;;0.20;99.90;;;;;;6224702;23;20008;-82
2021/01/06 10:58:16;;;;;;;47.15;17.65;;;0.10;99.90;;;;;;6227971;23;20016;-83
2021/01/06 11:00:51;;;;;;;42.15;18.15;;;0.10;99.90;;;;;;6228624;23;20023;-82
2021/01/06 11:03:53;;;;;;;40.38;14.65;;;0.00;99.90;;;;;;6227832;23;20012;-83
2021/01/06 11:06:34;;;;;;;47.88;17.20;;;0.00;99.90;;;;;;6227832;23;20020;-84
2021/01/06 11:09:19;;;;;;;42.67;17.23;;;0.10;99.90;;;;;;6227264;23;20026;-84
2021/01/06 11:12:35;;;;;;;41.45;16.90;;;0.10;99.90;;;;;;6254454;23;20000;-83
2021/01/06 11:15:03;;;;;;;36.83;14.95;;;0.20;99.90;;;;;;6176112;23;20042;-83
2021/01/06 11:17:33;;;;;;;38.13;15.98;;;0.30;99.90;;;;;;6227749;23;20336;-83
2021/01/06 11:20:47;;;;;;;37.35;15.77;;;0.20;99.90;;;;;;6251632;23;20024;-83
2021/01/06 11:23:34;;;;;;;40.38;15.50;;;0.20;99.90;;;;;;6143702;22;20013;-83
2021/01/06 11:26:34;;;;;;;37.72;16.67;;;0.20;99.90;;;;;;6219030;23;20011;-83
2021/01/06 11:29:42;;;;;;;36.78;15.77;;;0.30;99.90;;;;;;6213281;23;20008;-83
2021/01/06 11:32:35;;;;;;;40.25;16.48;;;0.40;99.90;;;;;;6157786;23;20027;-83
2021/01/06 11:35:55;;;;;;;42.97;16.88;;;0.40;99.90;;;;;;6221366;23;20082;-83
2021/01/06 11:38:48;;;;;;;44.47;17.17;;;0.30;99.90;;;;;;6194895;23;20090;-83
2021/01/06 11:48:36;;;;;;;37.97;15.20;;;0.50;99.90;;;;;;6250241;23;20414;-83
2021/01/06 11:51:24;;;;;;;42.65;16.73;;;0.70;99.90;;;;;;6254320;23;20046;-84
2021/01/06 11:54:27;;;;;;;35.50;15.27;;;0.70;99.90;;;;;;6226624;22;20030;-83
2021/01/06 11:57:29;;;;;;;39.22;16.42;;;0.60;99.90;;;;;;6223279;23;20010;-85
2021/01/06 12:00:13;;;;;;;39.80;16.65;;;0.60;99.90;;;;;;6260283;23;20424;-81
2021/01/06 12:02:44;;;;;;;34.67;15.82;;;0.70;99.90;;;;;;6237673;23;20004;-84
2021/01/06 12:05:32;;;;;;;31.10;13.60;;;0.80;99.90;;;;;;6263817;22;19992;-82
2021/01/06 12:08:16;;;;;;;34.22;14.05;;;0.80;99.90;;;;;;6256503;23;19996;-80
2021/01/06 12:10:55;;;;;;;32.25;14.13;;;0.80;99.90;;;;;;6226467;23;20004;-84
2021/01/06 12:13:40;;;;;;;33.78;15.57;;;;;;;;;;6226763;23;20007;-84
2021/01/06 12:16:32;;;;;;;34.85;15.48;;;0.50;99.70;;;;;;6225556;23;19996;-83
2021/01/06 12:19:19;;;;;;;39.28;15.35;;;0.40;99.90;;;;;;6226059;23;20043;-83
2021/01/06 12:22:10;;;;;;;35.50;14.77;;;0.40;99.90;;;;;;6252822;23;20000;-82
2021/01/06 12:24:36;;;;;;;34.63;14.88;;;0.50;99.90;;;;;;6253677;22;19996;-83
2021/01/06 12:27:11;;;;;;;33.60;15.15;;;0.50;99.90;;;;;;6227772;23;20403;-84
2021/01/06 12:29:46;;;;;;;33.78;15.02;;;0.60;99.90;;;;;;6254229;23;20446;-83
2021/01/06 12:32:50;;;;;;;31.67;14.82;;;0.60;99.90;;;;;;6226285;23;20010;-84
2021/01/06 12:35:34;;;;;;;34.13;14.35;;;0.70;99.90;;;;;;6227469;23;20016;-82
2021/01/06 12:38:12;;;;;;;33.55;15.23;;;0.70;99.90;;;;;;6253577;23;20431;-82
2021/01/06 12:40:57;;;;;;;36.08;16.13;;;0.80;99.90;;;;;;6226398;23;20448;-83
2021/01/06 12:43:32;;;;;;;33.15;14.98;;;0.90;99.90;;;;;;6225292;23;20008;-82
2021/01/06 12:46:04;;;;;;;39.13;16.30;;;0.90;99.90;;;;;;6226416;23;20077;-83
2021/01/06 12:48:43;;;;;;;33.78;14.80;;;0.90;99.90;;;;;;6227105;23;20443;-83
2021/01/06 12:51:15;;;;;;;32.70;14.25;;;0.70;99.90;;;;;;6253578;23;20000;-82
2021/01/06 12:53:51;;;;;;;35.20;15.70;;;0.70;99.90;;;;;;6226272;22;20006;-82
2021/01/06 12:56:37;;;;;;;39.35;15.90;;;0.70;99.90;;;;;;6254233;23;19996;-82
2021/01/06 12:59:20;;;;;;;31.20;14.43;;;0.60;99.90;;;;;;6254325;23;20015;-82
2021/01/06 13:01:58;;;;;;;37.78;16.40;;;0.60;99.90;;;;;;6254032;23;20004;-83
2021/01/06 13:04:30;;;;;;;30.30;13.93;;;0.60;99.90;;;;;;6228156;23;20011;-83
2021/01/06 13:07:16;;;;;;;32.42;13.82;;;0.70;99.90;;;;;;6226698;23;20091;-83
2021/01/06 13:09:48;;;;;;;34.55;14.77;;;0.80;99.90;;;;;;6236642;23;20039;-80
2021/01/06 13:12:21;;;;;;;34.42;14.30;;;0.90;99.90;;;;;;6234878;23;20004;-83
2021/01/06 13:15:06;;;;;;;;;;;0.90;99.90;;;;;;6226322;23;20004;-82
2021/01/06 13:18:07;;;;;;;36.25;15.57;;;0.90;99.90;;;;;;6225819;23;19946;-82
2021/01/06 13:20:54;;;;;;;34.30;15.00;;;0.80;99.90;;;;;;6223182;23;20038;-81
2021/01/06 13:23:25;;;;;;;32.97;15.00;;;0.80;99.90;;;;;;6225024;23;20015;-80
2021/01/06 13:26:01;;;;;;;36.13;15.50;;;0.80;99.90;;;;;;6249148;22;19996;-81
2021/01/06 13:28:33;;;;;;;41.65;17.33;;;0.70;99.90;;;;;;6247503;23;20012;-81
2021/01/06 13:31:42;;;;;;;33.97;14.70;;;0.80;99.90;;;;;;6223024;23;20459;-80
2021/01/06 13:34:39;;;;;;;33.30;14.70;;;0.90;99.90;;;;;;6221600;23;20008;-80
2021/01/06 13:37:07;;;;;;;36.30;14.73;;;0.90;99.90;;;;;;6207016;23;20062;-81
2021/01/06 13:39:44;;;;;;;35.88;16.30;;;0.90;99.90;;;;;;6222936;23;20064;-80
2021/01/06 13:42:36;;;;;;;41.30;16.85;;;1.00;99.90;;;;;;6249931;23;20316;-81
2021/01/06 13:45:11;;;;;;;35.17;16.13;;;1.00;99.90;;;;;;6250452;22;20617;-80